This is the latest recevied weather packets stored in our database for station/object KI5NXU. If no packets are shown the sender has not sent any weather packets the latest 10 day(s).
| Time | Temp. | Humidity | Pressure | Rain* | Wind** | Luminosity | Snow |
|---|---|---|---|---|---|---|---|
| 1788130519 | 39.44° C | 27% | 1012.2 hPa | 0 mm | - | 271 W/m² | - |
| 1788130218 | 39.44° C | 28% | 1012 hPa | 0 mm | - | 289 W/m² | - |
| 1788129916 | 39.44° C | 27% | 1012.2 hPa | 0 mm | - | 303 W/m² | - |
| 1788129613 | 38.89° C | 28% | 1011.8 hPa | 0 mm | - | 339 W/m² | - |
| 1788129310 | 39.44° C | 28% | 1011.9 hPa | 0 mm | - | 377 W/m² | - |
| 1788129015 | 38.89° C | 29% | 1012.2 hPa | 0 mm | - | 391 W/m² | - |
| 1788128699 | 39.44° C | 28% | 1012.2 hPa | 0 mm | - | 407 W/m² | - |
| 1788128394 | 40° C | 28% | 1012.2 hPa | 0 mm | - | 413 W/m² | - |
| 1788128090 | 39.44° C | 28% | 1012.1 hPa | 0 mm | - | 431 W/m² | - |
| 1788127785 | 40° C | 27% | 1012 hPa | 0 mm | - | 431 W/m² | - |
| 1788127480 | 40° C | 28% | 1012.3 hPa | 0 mm | - | 442 W/m² | - |
| 1788127177 | 40.56° C | 27% | 1012.2 hPa | 0 mm | - | 450 W/m² | - |
| 1788126872 | 40° C | 28% | 1012.2 hPa | 0 mm | - | 463 W/m² | - |
| 1788126567 | 40° C | 28% | 1012.2 hPa | 0 mm | - | 478 W/m² | - |
| 1788126262 | 40° C | 28% | 1012.4 hPa | 0 mm | - | 481 W/m² | - |
| 1788125957 | 40° C | 27% | 1012.4 hPa | 0 mm | - | 456 W/m² | - |
| 1788125652 | 39.44° C | 28% | 1012.3 hPa | 0 mm | - | 523 W/m² | - |
| 1788125348 | 40° C | 27% | 1012.4 hPa | 0 mm | - | 520 W/m² | - |
| 1788125043 | 40° C | 27% | 1012.5 hPa | 0 mm | - | 553 W/m² | - |
| 1788124742 | 38.89° C | 29% | 1012.5 hPa | 0 mm | - | 573 W/m² | - |
| 1788124437 | 40° C | 27% | 1012.5 hPa | 0 mm | - | 628 W/m² | - |
| 1788124133 | 40° C | 29% | 1012.6 hPa | 0 mm | - | 684 W/m² | - |
| 1788123832 | 40° C | 26% | 1012.6 hPa | 0 mm | - | 686 W/m² | - |
| 1788123530 | 39.44° C | 27% | 1012.8 hPa | 0 mm | - | 691 W/m² | - |
| 1788123229 | 39.44° C | 28% | 1012.9 hPa | 0 mm | - | 689 W/m² | - |
* Rain latest hour (hover to see other rain measurements)
** Current wind speed in m/s (hover to see current wind gust speed)